Time;durP1;ratioP1;P1;durP2;ratioP2;P2;SDS_P1;SDS_P2;PMS_P1;PMS_P2;Temp;Humidity;BMP_temperature;BMP_pressure;BME280_temperature;BME280_humidity;BME280_pressure;Samples;Min_cycle;Max_cycle;Signal;HPM_P1;HPM_P2
2022/08/14 00:02:24;;;;;;;;;5.50;4.75;;;;;25.42;30.75;100641.13;5107303;27;56792;-73
2022/08/14 00:04:49;;;;;;;;;6.00;6.00;;;;;25.36;31.20;100623.44;5089020;27;49452;-72
2022/08/14 00:07:15;;;;;;;;;5.25;4.75;;;;;25.32;30.43;100613.75;5108604;27;49617;-71
2022/08/14 00:09:42;;;;;;;;;5.00;4.00;;;;;25.25;30.62;100601.50;5108785;27;49467;-72
2022/08/14 00:12:07;;;;;;;;;5.75;5.50;;;;;25.21;30.82;100600.78;5108984;27;49431;-72
2022/08/14 00:14:33;;;;;;;;;4.00;4.00;;;;;25.03;30.51;100570.19;5108315;27;49669;-73
2022/08/14 00:16:58;;;;;;;;;3.75;3.75;;;;;25.24;30.93;100605.16;5107908;27;50649;-73
2022/08/14 00:19:23;;;;;;;;;5.50;4.00;;;;;25.27;30.44;100618.44;5108125;27;49578;-72
2022/08/14 00:21:50;;;;;;;;;5.25;4.50;;;;;25.26;30.26;100608.63;5107517;27;59829;-73
2022/08/14 00:24:16;;;;;;;;;6.50;6.50;;;;;25.21;29.99;100595.41;5108847;27;49305;-71
2022/08/14 00:26:41;;;;;;;;;5.75;4.25;;;;;25.05;30.07;100568.31;5088944;27;50985;-72
2022/08/14 00:29:06;;;;;;;;;4.00;4.00;;;;;25.23;30.28;100581.91;5107912;27;50000;-73
2022/08/14 00:31:32;;;;;;;;;2.75;2.75;;;;;25.26;30.34;100598.75;5108444;27;49508;-71
2022/08/14 00:33:57;;;;;;;;;4.00;4.00;;;;;25.25;30.25;100594.31;5089940;27;49642;-72
2022/08/14 00:36:23;;;;;;;;;4.50;4.25;;;;;25.21;30.23;100581.09;5108205;27;49994;-73
2022/08/14 00:38:49;;;;;;;;;4.50;4.50;;;;;25.20;30.30;100585.59;5108905;27;49459;-72
2022/08/14 00:41:14;;;;;;;;;5.00;3.75;;;;;25.21;30.63;100584.66;5107962;27;49346;-72
2022/08/14 00:43:39;;;;;;;;;5.25;4.50;;;;;25.09;30.34;100563.66;5108100;27;49529;-74
2022/08/14 00:46:07;;;;;;;;;4.00;4.00;;;;;25.06;30.61;100559.31;5107621;27;49478;-71
2022/08/14 00:48:33;;;;;;;;;5.00;4.75;;;;;25.10;30.73;100571.69;5107420;27;49369;-72
2022/08/14 00:50:59;;;;;;;;;4.00;4.00;;;;;25.14;30.65;100582.28;5107816;27;49316;-74
2022/08/14 00:53:25;;;;;;;;;4.50;4.25;;;;;25.11;30.82;100576.13;5108659;27;49558;-72
2022/08/14 00:55:54;;;;;;;;;5.75;5.75;;;;;24.95;30.66;100544.56;5089775;27;51508;-75
2022/08/14 00:58:32;;;;;;;;;6.75;5.00;;;;;24.96;31.11;100557.03;5107755;27;49336;-74
2022/08/14 01:01:07;;;;;;;;;5.50;4.50;;;;;25.04;31.22;100571.94;5107198;27;49958;-73
2022/08/14 01:03:36;;;;;;;;;4.75;4.75;;;;;24.97;31.08;100562.34;5108181;27;49690;-73
2022/08/14 01:06:02;;;;;;;;;5.75;5.75;;;;;24.83;31.30;100540.59;5106972;27;49629;-73
2022/08/14 01:08:30;;;;;;;;;4.00;4.00;;;;;24.94;31.31;100566.97;5107486;27;49852;-71
2022/08/14 01:10:57;;;;;;;;;4.75;4.75;;;;;24.70;31.79;100524.09;5107496;27;49614;-75
2022/08/14 01:13:36;;;;;;;;;5.50;4.75;;;;;24.88;31.68;100554.69;5089785;27;49653;-75
2022/08/14 01:16:05;;;;;;;;;6.00;6.00;;;;;24.74;31.72;100520.34;5106943;27;49429;-75
2022/08/14 01:21:20;;;;;;;;;6.25;5.00;;;;;24.75;31.75;100526.59;5107271;27;49206;-72
2022/08/14 01:23:52;;;;;;;;;4.75;4.75;;;;;24.69;31.95;100522.34;5108003;27;49754;-72
2022/08/14 01:26:21;;;;;;;;;4.75;4.75;;;;;24.70;32.25;100528.59;5107403;27;50370;-75
2022/08/14 01:28:54;;;;;;;;;4.00;4.00;;;;;24.69;32.07;100522.34;5107055;27;49282;-73
2022/08/14 01:31:22;;;;;;;;;5.00;5.00;;;;;24.53;32.20;100495.28;5107835;27;49409;-71
2022/08/14 01:33:50;;;;;;;;;3.25;3.25;;;;;24.53;32.04;100494.41;5108023;27;49556;-75
2022/08/14 01:36:18;;;;;;;;;5.00;5.00;;;;;24.70;32.17;100528.59;5107026;27;49860;-73
2022/08/14 01:38:47;;;;;;;;;5.00;5.00;;;;;24.66;32.21;100527.84;5106659;27;49532;-75
2022/08/14 01:41:16;;;;;;;;;5.00;5.00;;;;;24.64;31.93;100529.72;5106817;27;49429;-75
2022/08/14 01:43:58;;;;;;;;;4.00;4.00;;;;;24.58;31.72;100540.69;5107853;27;49411;-73
2022/08/14 01:46:24;;;;;;;;;4.75;4.75;;;;;24.53;31.83;100527.50;5100834;27;50138;-73
2022/08/14 01:48:51;;;;;;;;;4.75;4.75;;;;;24.47;31.95;100525.03;5106651;27;49675;-75
2022/08/14 01:51:21;;;;;;;;;7.25;6.75;;;;;24.57;32.06;100541.63;5106062;27;49359;-72
2022/08/14 01:53:53;;;;;;;;;3.75;3.75;;;;;24.45;32.06;100520.69;5101228;27;49579;-73
2022/08/14 01:56:20;;;;;;;;;5.00;5.00;;;;;24.52;32.09;100527.56;5100502;27;49794;-75
2022/08/14 01:58:48;;;;;;;;;5.00;3.75;;;;;24.50;32.15;100527.59;5107516;27;49762;-75
2022/08/14 02:01:19;;;;;;;;;4.75;4.75;;;;;24.54;32.14;100525.69;5106829;27;49605;-73
2022/08/14 02:03:46;;;;;;;;;4.75;4.75;;;;;24.44;32.30;100522.50;5107309;27;49790;-75
2022/08/14 02:06:12;;;;;;;;;5.75;5.50;;;;;24.52;32.36;100536.47;5101225;27;49745;-73
2022/08/14 02:08:39;;;;;;;;;4.75;4.75;;;;;24.48;32.35;100531.28;5090729;27;49619;-73
2022/08/14 02:11:16;;;;;;;;;3.75;3.75;;;;;24.47;32.41;100527.72;5090841;27;49787;-74
2022/08/14 02:13:43;;;;;;;;;4.75;4.75;;;;;24.47;32.45;100524.16;5091240;27;49950;-75
2022/08/14 02:16:10;;;;;;;;;5.00;4.00;;;;;24.10;32.67;100454.97;5090783;27;50044;-71
2022/08/14 02:18:36;;;;;;;;;9.75;5.75;;;;;24.41;32.73;100517.22;5090936;27;50027;-72
2022/08/14 02:21:03;;;;;;;;;4.75;4.00;;;;;24.34;32.92;100496.97;5090613;27;49823;-72
2022/08/14 02:23:32;;;;;;;;;6.25;6.25;;;;;24.31;33.19;100497.06;5090904;27;50046;-74
2022/08/14 02:26:00;;;;;;;;;4.75;4.75;;;;;24.15;33.21;100472.66;5090608;27;51174;-74
2022/08/14 02:28:29;;;;;;;;;4.50;4.50;;;;;24.28;33.23;100494.47;5090399;27;50029;-74
2022/08/14 02:30:55;;;;;;;;;5.25;5.25;;;;;24.25;33.15;100489.25;5090589;27;49883;-74
2022/08/14 02:33:21;;;;;;;;;5.25;5.25;;;;;24.26;33.26;100483.81;5091104;27;49896;-73
2022/08/14 02:35:46;;;;;;;;;5.25;5.25;;;;;24.18;33.31;100475.19;5090698;27;50906;-74
2022/08/14 02:38:12;;;;;;;;;6.25;6.00;;;;;24.14;33.22;100462.88;5090747;27;49661;-75
2022/08/14 02:40:37;;;;;;;;;3.50;3.50;;;;;24.21;33.37;100476.88;5090791;27;50153;-73
2022/08/14 02:43:04;;;;;;;;;5.00;4.00;;;;;24.21;33.54;100477.75;5090604;27;49758;-74
2022/08/14 02:45:33;;;;;;;;;5.00;4.00;;;;;24.15;33.44;100471.78;5090261;27;50336;-75
2022/08/14 02:48:01;;;;;;;;;6.00;4.25;;;;;23.95;33.30;100433.22;5090760;27;49855;-75
2022/08/14 02:50:27;;;;;;;;;5.00;4.00;;;;;24.13;33.33;100471.84;5090698;27;50127;-74
2022/08/14 02:52:53;;;;;;;;;6.00;6.00;;;;;24.14;33.36;100470.91;5090541;27;50131;-75
2022/08/14 02:55:19;;;;;;;;;3.75;3.75;;;;;24.07;33.38;100455.13;5090132;27;50029;-74
2022/08/14 02:57:45;;;;;;;;;6.00;5.00;;;;;24.12;33.23;100456.66;5090216;27;49731;-74
2022/08/14 03:00:12;;;;;;;;;7.25;6.00;;;;;24.09;33.25;100464.84;5090082;27;49879;-74
2022/08/14 03:02:37;;;;;;;;;6.50;6.50;;;;;24.09;33.33;100462.16;5090564;27;50119;-74
2022/08/14 03:05:03;;;;;;;;;4.00;4.00;;;;;;;;5090304;27;50426;-73
2022/08/14 03:07:28;;;;;;;;;7.75;7.75;;;;;24.06;33.52;100464.09;5090520;27;49728;-72
2022/08/14 03:09:53;;;;;;;;;7.00;7.00;;;;;24.01;33.50;100460.72;5090501;27;49967;-75
2022/08/14 03:12:20;;;;;;;;;8.25;7.75;;;;;24.05;33.64;100465.03;5090583;27;49791;-74
2022/08/14 03:14:50;;;;;;;;;5.00;5.00;;;;;24.02;33.49;100468.69;5089744;27;49673;-71
2022/08/14 03:17:15;;;;;;;;;6.00;6.00;;;;;24.01;33.71;100464.25;5090216;27;50123;-73
2022/08/14 03:19:41;;;;;;;;;6.00;6.00;;;;;23.95;33.41;100446.63;5090016;27;49765;-75
2022/08/14 03:22:07;;;;;;;;;5.75;5.75;;;;;24.01;33.46;100458.91;5090109;27;49807;-70
2022/08/14 03:24:33;;;;;;;;;11.25;8.00;;;;;23.82;33.50;100442.66;5088077;27;51105;-73
2022/08/14 03:26:58;;;;;;;;;7.25;7.25;;;;;23.97;33.62;100468.00;5090148;27;49672;-73
2022/08/14 03:29:24;;;;;;;;;5.75;4.50;;;;;23.94;33.87;100460.97;5089445;27;55645;-74
2022/08/14 03:31:50;;;;;;;;;4.50;4.25;;;;;23.91;33.69;100457.50;5088483;27;49647;-75
2022/08/14 03:34:17;;;;;;;;;7.25;7.00;;;;;23.87;33.81;100461.25;5088129;27;52954;-74
2022/08/14 03:36:43;;;;;;;;;4.50;4.50;;;;;23.76;33.80;100440.22;5089753;27;49739;-74
2022/08/14 03:39:10;;;;;;;;;6.00;5.75;;;;;23.84;33.82;100456.91;5089665;27;49929;-74
2022/08/14 03:41:36;;;;;;;;;5.25;4.50;;;;;23.68;34.15;100442.34;5092943;27;49734;-74
2022/08/14 03:44:04;;;;;;;;;6.00;6.00;;;;;23.41;34.16;100398.66;5093311;27;50611;-74
2022/08/14 03:46:32;;;;;;;;;5.25;5.25;;;;;23.72;34.31;100445.75;5093350;27;49799;-72
2022/08/14 03:49:00;;;;;;;;;4.75;4.75;;;;;23.58;34.25;100436.41;5093502;27;50031;-71
2022/08/14 03:51:27;;;;;;;;;6.00;3.75;;;;;23.73;34.41;100455.53;5093468;27;49624;-74
2022/08/14 03:53:54;;;;;;;;;5.00;4.25;;;;;23.62;34.27;100453.28;5092761;27;50525;-73
2022/08/14 03:56:20;;;;;;;;;3.25;3.25;;;;;23.63;34.17;100460.38;5093152;27;49740;-74
2022/08/14 03:58:48;;;;;;;;;6.25;6.25;;;;;23.75;34.36;100473.34;5093145;27;50236;-73
2022/08/14 04:01:18;;;;;;;;;4.50;3.25;;;;;23.76;34.36;100475.09;5093508;27;49959;-72
2022/08/14 04:03:43;;;;;;;;;6.75;6.00;;;;;23.70;34.39;100481.53;5092963;27;50876;-73
2022/08/14 04:06:09;;;;;;;;;5.25;5.25;;;;;23.70;34.66;100491.38;5093140;27;50107;-73
2022/08/14 04:08:39;;;;;;;;;4.00;4.00;;;;;23.62;34.41;100474.72;5093083;27;50183;-70
2022/08/14 04:11:06;;;;;;;;;6.75;6.75;;;;;23.67;34.46;100491.50;5086664;27;49817;-71
2022/08/14 04:13:34;;;;;;;;;7.00;5.50;;;;;23.56;34.34;100467.75;5092611;27;50594;-73
2022/08/14 04:16:04;;;;;;;;;6.25;5.50;;;;;23.50;34.59;100457.25;5092852;27;49684;-73
2022/08/14 04:18:31;;;;;;;;;5.50;5.50;;;;;23.60;34.60;100489.97;5092916;27;49651;-74
2022/08/14 04:20:56;;;;;;;;;5.75;5.75;;;;;23.59;34.55;100488.22;5086381;27;49759;-73
2022/08/14 04:23:23;;;;;;;;;5.25;4.50;;;;;23.54;34.56;100476.75;5092659;27;49771;-71
2022/08/14 04:25:51;;;;;;;;;6.50;5.75;;;;;23.40;34.88;100437.97;5092727;27;49612;-72
2022/08/14 04:28:17;;;;;;;;;4.00;4.00;;;;;23.40;34.84;100450.50;5092785;27;49768;-70
2022/08/14 04:30:42;;;;;;;;;5.25;5.25;;;;;23.46;34.83;100466.34;5092532;27;49788;-73
2022/08/14 04:33:08;;;;;;;;;7.50;6.50;;;;;23.50;35.09;100481.38;5092343;27;50451;-74
2022/08/14 04:35:37;;;;;;;;;8.25;7.00;;;;;23.50;35.43;100477.81;5092372;27;49807;-73
2022/08/14 04:43:37;;;;;;;;;8.75;8.50;;;;;23.20;35.09;100421.78;5092393;27;49919;-70
2022/08/14 04:46:04;;;;;;;;;8.75;7.00;;;;;23.48;35.21;100472.53;5092204;27;49906;-70
2022/08/14 04:48:29;;;;;;;;;6.00;6.00;;;;;23.47;35.27;100467.22;5092581;27;49818;-73
2022/08/14 04:50:58;;;;;;;;;9.25;8.50;;;;;23.44;35.53;100446.75;5090574;27;49819;-70
2022/08/14 04:53:27;;;;;;;;;5.25;5.25;;;;;23.45;35.48;100444.94;5092181;27;49786;-72
2022/08/14 04:55:53;;;;;;;;;7.25;7.25;;;;;23.41;35.79;100441.53;5074030;27;49822;-72
2022/08/14 04:58:23;;;;;;;;;5.75;5.75;;;;;23.43;35.56;100443.22;5092375;27;49992;-71
2022/08/14 05:00:50;;;;;;;;;6.00;6.00;;;;;23.30;35.51;100433.88;5092368;27;49980;-73
2022/08/14 05:03:21;;;;;;;;;8.75;6.75;;;;;23.14;35.50;100398.75;5092280;27;49908;-70
2022/08/14 05:05:47;;;;;;;;;6.25;6.25;;;;;23.30;35.29;100428.53;5092150;27;49798;-70
2022/08/14 05:08:13;;;;;;;;;8.00;6.75;;;;;23.23;35.60;100399.34;5091813;27;49885;-73
2022/08/14 05:10:50;;;;;;;;;5.25;5.25;;;;;23.33;35.63;100428.41;5092218;27;49886;-70
2022/08/14 05:13:19;;;;;;;;;8.00;8.00;;;;;23.33;35.80;100422.19;5091843;27;50515;-71
2022/08/14 05:15:45;;;;;;;;;5.50;5.50;;;;;23.22;35.91;100378.88;5091666;27;49819;-73
2022/08/14 05:18:20;;;;;;;;;7.00;7.00;;;;;23.34;35.94;100405.19;5092232;27;49992;-72
2022/08/14 05:20:48;;;;;;;;;4.75;4.75;;;;;23.38;35.94;100420.22;5092039;27;49984;-71
2022/08/14 05:23:17;;;;;;;;;6.00;6.00;;;;;23.46;36.09;100433.34;5091295;27;52581;-71
2022/08/14 05:25:43;;;;;;;;;6.25;6.25;;;;;23.25;35.93;100398.34;5091588;27;49802;-72
2022/08/14 05:28:21;;;;;;;;;7.75;7.00;;;;;23.38;36.30;100418.41;5091783;27;50005;-70
2022/08/14 05:30:47;;;;;;;;;6.25;6.00;;;;;23.48;35.84;100439.50;5091704;27;49952;-70
2022/08/14 05:33:15;;;;;;;;;6.00;6.00;;;;;23.53;35.85;100446.41;5091754;27;49662;-73
2022/08/14 05:35:41;;;;;;;;;6.00;6.00;;;;;23.32;35.83;100393.66;5091432;27;49732;-71
2022/08/14 05:38:08;;;;;;;;;6.75;5.75;;;;;23.61;35.97;100435.44;5091399;27;49738;-70
2022/08/14 05:40:34;;;;;;;;;7.00;7.00;;;;;23.51;35.75;100434.03;5091773;27;49807;-72
2022/08/14 05:42:59;;;;;;;;;4.75;4.75;;;;;23.56;35.72;100430.25;5091158;27;50346;-73
2022/08/14 05:45:25;;;;;;;;;6.50;6.25;;;;;23.66;35.99;100420.09;5091052;27;49853;-72
2022/08/14 05:47:50;;;;;;;;;7.75;6.25;;;;;23.61;35.95;100412.19;5091369;27;49889;-72
2022/08/14 05:50:16;;;;;;;;;4.50;4.50;;;;;23.67;36.08;100413.78;5072990;27;49897;-71
2022/08/14 05:52:41;;;;;;;;;6.00;6.00;;;;;23.63;36.00;100388.03;5068426;28;52507;-70
2022/08/14 05:55:11;;;;;;;;;5.00;4.75;;;;;23.76;35.97;100401.84;5071590;27;50000;-71
2022/08/14 05:57:50;;;;;;;;;5.50;5.50;;;;;23.69;35.95;100385.13;5070985;27;50225;-70
2022/08/14 06:00:18;;;;;;;;;6.75;6.75;;;;;23.46;35.43;100364.56;5069791;28;49890;-70
2022/08/14 06:02:43;;;;;;;;;5.00;5.00;;;;;23.58;35.72;100387.31;5085159;27;51336;-72
2022/08/14 06:05:09;;;;;;;;;5.25;5.25;;;;;23.51;36.09;100372.41;5070664;27;49975;-71
2022/08/14 06:07:35;;;;;;;;;6.00;6.00;;;;;23.69;36.03;100391.34;5069100;28;49942;-72
2022/08/14 06:10:01;;;;;;;;;6.75;6.75;;;;;23.76;36.04;100408.06;5071006;28;49991;-73
2022/08/14 06:12:26;;;;;;;;;7.00;6.00;;;;;23.77;36.20;100409.81;5070508;27;50834;-72
2022/08/14 06:14:52;;;;;;;;;5.25;5.25;;;;;23.58;36.31;100380.16;5069012;27;54585;-70
2022/08/14 06:17:17;;;;;;;;;5.25;5.25;;;;;23.80;36.01;100433.81;5070298;27;49758;-72
2022/08/14 06:19:42;;;;;;;;;6.75;6.75;;;;;23.60;36.16;100375.63;5068744;28;49750;-72
2022/08/14 06:22:08;;;;;;;;;8.00;7.00;;;;;23.54;36.19;100367.78;5070059;28;49818;-72
2022/08/14 06:24:33;;;;;;;;;6.50;6.50;;;;;23.41;36.20;100378.09;5070050;27;49869;-71
2022/08/14 06:26:58;;;;;;;;;6.50;6.00;;;;;23.63;36.05;100414.81;5069201;28;49992;-72
2022/08/14 06:29:23;;;;;;;;;7.00;6.75;;;;;23.64;36.56;100408.53;5069720;27;49977;-70
2022/08/14 06:31:49;;;;;;;;;7.00;6.00;;;;;23.67;37.09;100411.97;5068524;27;50389;-70
2022/08/14 06:34:14;;;;;;;;;5.00;5.00;;;;;23.54;36.38;100391.03;5069796;27;49676;-71
2022/08/14 06:36:40;;;;;;;;;6.00;6.00;;;;;23.45;36.63;100381.56;5070011;28;49838;-71
2022/08/14 06:39:06;;;;;;;;;7.00;7.00;;;;;23.54;36.57;100380.31;5070218;27;49871;-71
2022/08/14 06:41:32;;;;;;;;;8.50;8.50;;;;;23.64;36.38;100395.13;5069390;27;49860;-73
2022/08/14 06:43:57;;;;;;;;;7.50;7.50;;;;;23.55;36.39;100380.28;5069502;28;49916;-74
2022/08/14 06:46:23;;;;;;;;;6.25;6.25;;;;;23.52;36.52;100380.38;5068579;27;50691;-73
2022/08/14 06:48:48;;;;;;;;;10.25;8.00;;;;;23.54;36.34;100380.31;5068328;28;49924;-71
2022/08/14 06:51:13;;;;;;;;;6.50;6.00;;;;;23.63;36.50;100394.25;5072220;27;50520;-74
2022/08/14 06:53:39;;;;;;;;;7.00;7.00;;;;;23.73;36.87;100421.56;5090215;27;49892;-71
2022/08/14 06:56:04;;;;;;;;;10.50;9.00;;;;;23.76;37.56;100418.78;5071324;27;49984;-72
2022/08/14 06:58:30;;;;;;;;;7.25;6.75;;;;;23.80;38.14;100427.56;5089136;27;49815;-75
2022/08/14 07:06:23;;;;;;;;;8.75;8.00;;;;;23.97;38.25;100422.44;5089943;27;49806;-72
2022/08/14 07:08:51;;;;;;;;;9.50;9.00;;;;;23.81;38.32;100386.44;5089927;27;49673;-70
2022/08/14 07:11:17;;;;;;;;;7.75;7.00;;;;;24.14;38.87;100441.41;5089579;27;49968;-74
2022/08/14 07:13:42;;;;;;;;;7.00;7.00;;;;;24.11;38.66;100427.22;5070963;27;49884;-73
2022/08/14 07:16:08;;;;;;;;;10.25;9.75;;;;;23.85;38.69;100362.16;5091709;27;50068;-73
2022/08/14 07:18:35;;;;;;;;;9.50;7.00;;;;;23.94;38.70;100340.31;5092902;27;50071;-73
2022/08/14 07:21:05;;;;;;;;;9.50;9.50;;;;;23.96;38.79;100330.41;5092873;27;51004;-71
2022/08/14 07:23:30;;;;;;;;;8.50;8.50;;;;;24.59;39.25;100416.31;5093199;27;49809;-72
2022/08/14 07:25:57;;;;;;;;;9.00;9.00;;;;;24.12;38.90;100327.94;5074649;27;49835;-73
2022/08/14 07:28:32;;;;;;;;;9.25;9.25;;;;;24.66;38.49;100390.97;5093126;27;49904;-74
2022/08/14 07:30:58;;;;;;;;;7.50;7.50;;;;;24.88;37.75;100396.25;5092652;27;50692;-73
2022/08/14 07:33:27;;;;;;;;;8.00;7.50;;;;;24.83;36.40;100371.44;5092900;27;49719;-73
2022/08/14 07:35:53;;;;;;;;;8.50;7.00;;;;;25.00;35.60;100368.03;5092755;27;49844;-73
2022/08/14 07:38:21;;;;;;;;;6.00;6.00;;;;;25.62;34.61;100426.94;5092197;27;49981;-74
2022/08/14 07:40:48;;;;;;;;;5.00;4.50;;;;;25.15;34.09;100316.31;5092631;27;50653;-77
2022/08/14 07:43:13;;;;;;;;;5.50;5.50;;;;;25.85;33.61;100412.44;5075048;27;49764;-75
2022/08/14 07:45:40;;;;;;;;;4.00;4.00;;;;;26.03;33.15;100421.44;5092208;27;49985;-72
2022/08/14 07:48:05;;;;;;;;;6.75;6.75;;;;;26.37;33.02;100435.94;5087520;27;49941;-73
2022/08/14 07:50:32;;;;;;;;;6.75;5.75;;;;;26.55;32.31;100432.38;5091764;27;49882;-73
2022/08/14 07:52:58;;;;;;;;;3.50;3.50;;;;;26.22;31.95;100381.06;5092302;27;49950;-74
2022/08/14 07:55:24;;;;;;;;;6.00;6.00;;;;;26.43;31.45;100381.84;5090930;27;49823;-73
2022/08/14 07:57:50;;;;;;;;;5.50;4.75;;;;;26.65;31.48;100401.34;5093212;27;49793;-74
2022/08/14 08:00:21;;;;;;;;;6.00;6.00;;;;;26.82;31.16;100405.84;5092036;27;51537;-71
2022/08/14 08:02:50;;;;;;;;;6.25;6.25;;;;;26.84;31.55;100385.09;5091970;27;49895;-73
2022/08/14 08:05:17;;;;;;;;;6.25;5.25;;;;;26.94;31.31;100390.88;5092813;27;49805;-73
2022/08/14 08:07:45;;;;;;;;;6.25;6.25;;;;;26.87;31.54;100376.84;5093018;27;49910;-70
2022/08/14 08:10:32;;;;;;;;;6.25;6.00;;;;;27.07;31.25;100408.16;5092646;27;50584;-78
2022/08/14 08:13:06;;;;;;;;;5.50;5.50;;;;;27.16;31.16;100410.38;5092778;27;49937;-75
2022/08/14 08:15:35;;;;;;;;;5.00;5.00;;;;;27.18;31.40;100412.97;5092608;27;50020;-76
2022/08/14 08:18:03;;;;;;;;;7.00;7.00;;;;;27.01;31.58;100401.22;5091391;27;49985;-79
2022/08/14 08:20:31;;;;;;;;;7.50;7.50;;;;;27.08;31.80;100416.16;5091989;27;50893;-74
2022/08/14 08:22:58;;;;;;;;;6.50;6.50;;;;;27.12;31.53;100414.19;5091199;27;49761;-71
2022/08/14 08:25:25;;;;;;;;;8.50;7.50;;;;;26.99;31.94;100407.66;5090047;27;49738;-70
2022/08/14 08:28:01;;;;;;;;;5.00;5.00;;;;;27.06;31.14;100427.97;5091065;27;49756;-72
2022/08/14 08:30:29;;;;;;;;;7.75;7.25;;;;;27.08;31.25;100412.59;5091247;27;50695;-69
2022/08/14 08:32:57;;;;;;;;;8.00;5.25;;;;;26.84;31.54;100385.09;5092470;27;49792;-70
2022/08/14 08:35:25;;;;;;;;;7.00;7.00;;;;;26.84;30.90;100374.34;5092062;27;49738;-74
2022/08/14 08:38:02;;;;;;;;;7.75;5.00;;;;;27.01;31.41;100403.91;5092410;27;50032;-72
2022/08/14 08:40:35;;;;;;;;;9.00;8.25;;;;;26.95;31.25;100379.16;5074850;27;52128;-72
2022/08/14 08:43:30;;;;;;;;;5.25;5.25;;;;;27.39;31.25;100434.25;5085376;27;50401;-74
2022/08/14 08:46:03;;;;;;;;;7.25;7.25;;;;;26.66;30.92;100279.22;5089675;27;49652;-75
2022/08/14 08:48:46;;;;;;;;;6.00;6.00;;;;;27.29;30.45;100332.41;5087021;27;49959;-78
2022/08/14 08:51:32;;;;;;;;;6.00;6.00;;;;;27.72;30.97;100386.69;5086488;27;50862;-70
2022/08/14 08:54:06;;;;;;;;;5.00;4.50;;;;;27.69;29.77;100343.69;5088283;27;49761;-72
2022/08/14 08:56:47;;;;;;;;;4.75;4.75;;;;;27.97;29.94;100380.75;5091216;27;50000;-73
2022/08/14 08:59:23;;;;;;;;;4.75;3.25;;;;;28.37;29.62;100428.78;5092025;27;49927;-75
2022/08/14 09:02:00;;;;;;;;;6.00;6.00;;;;;27.85;29.28;100355.34;5090872;27;49912;-75
2022/08/14 09:04:27;;;;;;;;;3.25;3.25;;;;;27.64;29.89;100311.56;5091754;27;49886;-74
2022/08/14 09:06:53;;;;;;;;;8.00;8.00;;;;;28.22;30.29;100416.16;5089751;27;49726;-71
2022/08/14 09:09:24;;;;;;;;;10.00;10.00;;;;;28.18;31.09;100418.19;5091494;27;50057;-69
2022/08/14 09:11:53;;;;;;;;;8.75;7.50;;;;;27.92;31.41;100365.72;5084048;27;49945;-78
2022/08/14 09:14:28;;;;;;;;;7.00;7.00;;;;;28.16;31.60;100401.19;5091432;27;50142;-80
2022/08/14 09:16:54;;;;;;;;;10.00;8.75;;;;;28.16;32.42;100406.59;5090745;27;49800;-75
2022/08/14 09:19:20;;;;;;;;;5.75;5.75;;;;;27.89;32.59;100340.72;5091721;27;49656;-72
2022/08/14 09:21:45;;;;;;;;;11.75;10.25;;;;;27.85;32.30;100321.16;5090660;27;50725;-77
2022/08/14 09:24:11;;;;;;;;;9.00;8.00;;;;;28.32;32.52;100389.53;5091828;27;50059;-76
2022/08/14 09:26:40;;;;;;;;;11.50;10.50;;;;;27.89;32.56;100306.56;5091261;27;49974;-80
2022/08/14 09:29:06;;;;;;;;;8.25;7.00;;;;;28.55;32.38;100396.28;5091918;27;49798;-74
2022/08/14 09:31:33;;;;;;;;;6.75;6.75;;;;;28.72;32.27;100399.72;5091545;27;50959;-72
2022/08/14 09:34:26;;;;;;;;;8.00;8.00;;;;;28.80;32.58;100392.03;5084975;27;49608;-77
2022/08/14 09:37:15;;;;;;;;;9.00;9.00;;;;;28.93;32.54;100375.94;5088200;27;49888;-74
2022/08/14 09:39:56;;;;;;;;;7.25;7.25;;;;;29.10;32.37;100383.03;5090759;27;49712;-77
2022/08/14 09:42:44;;;;;;;;;8.50;7.25;;;;;29.26;32.19;100388.34;5091246;27;49972;-72
2022/08/14 09:45:31;;;;;;;;;9.50;5.75;;;;;28.96;31.98;100339.78;5091283;27;49707;-75
2022/08/14 09:47:57;;;;;;;;;5.75;5.25;;;;;29.52;32.19;100406.50;5089817;27;49849;-74
2022/08/14 09:50:28;;;;;;;;;4.50;4.25;;;;;29.62;31.87;100391.44;5091557;27;49850;-72
2022/08/14 09:52:56;;;;;;;;;6.75;6.00;;;;;29.74;31.98;100397.91;5084516;27;50529;-74
2022/08/14 09:55:24;;;;;;;;;7.25;6.25;;;;;29.63;31.70;100371.56;5084586;27;49716;-72
2022/08/14 09:57:51;;;;;;;;;4.50;4.50;;;;;29.64;31.73;100351.66;5066411;27;49648;-75
2022/08/14 10:00:18;;;;;;;;;7.25;6.50;;;;;29.60;31.98;100323.06;5090910;27;50020;-74
2022/08/14 10:03:01;;;;;;;;;7.25;6.75;;;;;29.96;31.52;100373.03;5091059;27;49905;-74
2022/08/14 10:05:34;;;;;;;;;4.00;4.00;;;;;30.29;31.40;100393.44;5091086;27;49837;-74
2022/08/14 10:08:01;;;;;;;;;7.25;7.25;;;;;30.42;31.49;100397.06;5091239;27;49624;-74
2022/08/14 10:10:34;;;;;;;;;5.50;4.00;;;;;30.49;31.22;100404.66;5090889;27;49983;-74
2022/08/14 10:13:01;;;;;;;;;5.75;5.75;;;;;30.40;31.39;100361.06;5090736;27;49872;-75
2022/08/14 10:15:30;;;;;;;;;6.50;6.50;;;;;30.62;31.59;100374.91;5090489;27;50084;-75
2022/08/14 10:18:08;;;;;;;;;5.75;4.75;;;;;30.80;31.28;100390.91;5091186;27;49723;-78
2022/08/14 10:20:43;;;;;;;;;5.50;5.50;;;;;30.88;31.25;100386.66;5091048;27;49834;-76
2022/08/14 10:23:17;;;;;;;;;5.75;4.50;;;;;30.97;31.17;100377.88;5091033;27;50311;-73
2022/08/14 10:25:46;;;;;;;;;5.00;5.00;;;;;31.09;30.88;100387.03;5083908;27;49776;-73
2022/08/14 10:28:15;;;;;;;;;5.50;5.50;;;;;31.04;30.78;100349.38;5090928;27;49974;-77
2022/08/14 10:30:42;;;;;;;;;4.25;4.25;;;;;30.26;30.80;100205.00;5084314;27;49916;-77
2022/08/14 10:33:08;;;;;;;;;4.50;4.50;;;;;31.24;30.36;100356.13;5065753;27;50791;-74
2022/08/14 10:35:41;;;;;;;;;6.50;5.00;;;;;31.26;30.60;100383.13;5083903;27;49682;-75
2022/08/14 10:38:07;;;;;;;;;6.00;4.50;;;;;30.98;30.19;100298.34;5091540;27;49809;-72
2022/08/14 10:40:33;;;;;;;;;7.75;7.00;;;;;31.45;30.31;100369.97;5091149;27;49765;-77
2022/08/14 10:42:58;;;;;;;;;6.25;6.25;;;;;31.50;30.24;100373.25;5074974;27;50588;-73
2022/08/14 10:45:30;;;;;;;;;6.00;5.00;;;;;31.56;29.58;100375.53;5091755;27;49740;-78
2022/08/14 10:47:56;;;;;;;;;7.75;7.50;;;;;31.60;29.88;100382.44;5090738;27;49811;-71
2022/08/14 10:50:32;;;;;;;;;3.75;3.75;;;;;31.65;29.39;100384.81;5093409;27;49824;-71
2022/08/14 10:52:59;;;;;;;;;6.25;5.75;;;;;31.74;29.54;100378.72;5088487;27;50499;-74
2022/08/14 10:55:38;;;;;;;;;4.00;4.00;;;;;31.32;29.55;100301.34;5095419;27;49891;-75
2022/08/14 10:58:09;;;;;;;;;5.75;5.75;;;;;31.60;29.09;100321.91;5093529;27;49985;-73
2022/08/14 11:00:36;;;;;;;;;4.25;4.25;;;;;31.99;29.14;100390.53;5094171;27;49794;-77
2022/08/14 11:03:12;;;;;;;;;4.50;3.25;;;;;31.41;29.01;100305.22;5094302;27;49847;-74
2022/08/14 11:05:47;;;;;;;;;7.00;6.00;;;;;32.13;28.96;100399.34;5094153;27;49845;-73
2022/08/14 11:08:14;;;;;;;;;6.00;6.00;;;;;32.27;29.04;100397.47;5093881;27;50041;-71
2022/08/14 11:10:55;;;;;;;;;4.00;4.00;;;;;32.34;28.59;100388.78;5093835;27;49719;-71
2022/08/14 11:13:23;;;;;;;;;5.00;5.00;;;;;32.12;28.63;100335.16;5093724;27;49915;-72
2022/08/14 11:15:49;;;;;;;;;8.00;6.00;;;;;32.10;28.94;100307.28;5093806;27;49984;-73
2022/08/14 11:18:15;;;;;;;;;6.00;6.00;;;;;32.70;28.02;100395.06;5087306;27;49854;-72
2022/08/14 11:20:49;;;;;;;;;6.00;6.00;;;;;32.34;28.26;100334.47;5093883;27;49784;-73
2022/08/14 11:23:17;;;;;;;;;7.00;7.00;;;;;32.74;28.69;100388.44;5093489;27;51201;-73
2022/08/14 11:25:48;;;;;;;;;6.25;6.00;;;;;32.87;28.30;100397.38;5093491;27;49653;-72
2022/08/14 11:28:15;;;;;;;;;4.50;4.50;;;;;32.84;28.58;100384.03;5093241;27;49857;-72
2022/08/14 11:30:43;;;;;;;;;6.00;4.25;;;;;32.93;28.44;100402.34;5093573;27;49713;-72
2022/08/14 11:33:12;;;;;;;;;6.00;5.00;;;;;32.87;28.92;100391.94;5093587;27;49855;-73
2022/08/14 11:35:38;;;;;;;;;4.00;4.00;;;;;32.75;29.02;100392.88;5093501;27;49612;-71
2022/08/14 11:38:06;;;;;;;;;6.00;5.00;;;;;32.68;28.78;100406.06;5093791;27;49713;-71
2022/08/14 11:40:34;;;;;;;;;6.00;6.00;;;;;32.51;28.53;100397.47;5093683;27;49885;-82
2022/08/14 11:43:03;;;;;;;;;7.75;6.75;;;;;32.35;29.01;100381.50;5093194;27;51639;-73
2022/08/14 11:45:31;;;;;;;;;4.00;3.75;;;;;32.34;29.78;100399.66;5093168;27;49842;-70